sensor_id;sensor_type;location;lat;lon;timestamp;P1;durP1;ratioP1;P2;durP2;ratioP2
67528;SDS011;54366;51.980;5.856;2023-01-08T00:01:37;1.95;;;1.67;;
67528;SDS011;54366;51.980;5.856;2023-01-08T00:04:03;1.75;;;1.65;;
67528;SDS011;54366;51.980;5.856;2023-01-08T00:06:30;1.63;;;1.52;;
67528;SDS011;54366;51.980;5.856;2023-01-08T00:08:56;2.55;;;1.70;;
67528;SDS011;54366;51.980;5.856;2023-01-08T00:11:22;3.13;;;2.05;;
67528;SDS011;54366;51.980;5.856;2023-01-08T00:13:49;1.92;;;1.77;;
67528;SDS011;54366;51.980;5.856;2023-01-08T00:16:16;3.80;;;2.03;;
67528;SDS011;54366;51.980;5.856;2023-01-08T00:18:43;1.85;;;1.65;;
67528;SDS011;54366;51.980;5.856;2023-01-08T00:21:11;3.65;;;2.00;;
67528;SDS011;54366;51.980;5.856;2023-01-08T00:23:38;2.47;;;1.92;;
67528;SDS011;54366;51.980;5.856;2023-01-08T00:26:05;2.08;;;1.85;;
67528;SDS011;54366;51.980;5.856;2023-01-08T00:28:33;2.67;;;2.10;;
67528;SDS011;54366;51.980;5.856;2023-01-08T00:31:03;3.08;;;2.15;;
67528;SDS011;54366;51.980;5.856;2023-01-08T00:33:35;1.90;;;1.80;;
67528;SDS011;54366;51.980;5.856;2023-01-08T00:36:14;2.63;;;2.30;;
67528;SDS011;54366;51.980;5.856;2023-01-08T00:38:42;2.78;;;1.90;;
67528;SDS011;54366;51.980;5.856;2023-01-08T00:41:10;2.47;;;2.00;;
67528;SDS011;54366;51.980;5.856;2023-01-08T00:43:38;2.55;;;2.00;;
67528;SDS011;54366;51.980;5.856;2023-01-08T00:46:04;3.30;;;2.22;;
67528;SDS011;54366;51.980;5.856;2023-01-08T00:48:32;3.25;;;1.88;;
67528;SDS011;54366;51.980;5.856;2023-01-08T00:51:01;3.28;;;1.73;;
67528;SDS011;54366;51.980;5.856;2023-01-08T00:53:28;2.80;;;1.80;;
67528;SDS011;54366;51.980;5.856;2023-01-08T00:56:01;2.35;;;1.70;;
67528;SDS011;54366;51.980;5.856;2023-01-08T00:58:29;2.38;;;1.80;;
67528;SDS011;54366;51.980;5.856;2023-01-08T01:00:56;2.92;;;2.00;;
67528;SDS011;54366;51.980;5.856;2023-01-08T01:03:22;1.98;;;1.73;;
67528;SDS011;54366;51.980;5.856;2023-01-08T01:05:49;3.75;;;1.92;;
67528;SDS011;54366;51.980;5.856;2023-01-08T01:08:15;2.00;;;1.50;;
67528;SDS011;54366;51.980;5.856;2023-01-08T01:10:41;3.38;;;1.98;;
67528;SDS011;54366;51.980;5.856;2023-01-08T01:13:08;2.42;;;1.98;;
67528;SDS011;54366;51.980;5.856;2023-01-08T01:15:35;2.08;;;1.80;;
67528;SDS011;54366;51.980;5.856;2023-01-08T01:18:01;2.83;;;2.00;;
67528;SDS011;54366;51.980;5.856;2023-01-08T01:20:27;3.10;;;1.70;;
67528;SDS011;54366;51.980;5.856;2023-01-08T01:22:54;2.88;;;2.00;;
67528;SDS011;54366;51.980;5.856;2023-01-08T01:25:20;2.72;;;1.95;;
67528;SDS011;54366;51.980;5.856;2023-01-08T01:27:46;3.50;;;1.90;;
67528;SDS011;54366;51.980;5.856;2023-01-08T01:30:13;3.83;;;1.90;;
67528;SDS011;54366;51.980;5.856;2023-01-08T01:32:39;3.97;;;2.10;;
67528;SDS011;54366;51.980;5.856;2023-01-08T01:35:06;2.95;;;2.10;;
67528;SDS011;54366;51.980;5.856;2023-01-08T01:37:32;2.72;;;2.00;;
67528;SDS011;54366;51.980;5.856;2023-01-08T01:39:59;3.83;;;2.00;;
67528;SDS011;54366;51.980;5.856;2023-01-08T01:42:25;2.63;;;2.15;;
67528;SDS011;54366;51.980;5.856;2023-01-08T01:45:20;2.83;;;1.90;;
67528;SDS011;54366;51.980;5.856;2023-01-08T01:48:08;4.28;;;2.20;;
67528;SDS011;54366;51.980;5.856;2023-01-08T01:50:38;3.47;;;1.90;;
67528;SDS011;54366;51.980;5.856;2023-01-08T01:53:13;3.85;;;2.50;;
67528;SDS011;54366;51.980;5.856;2023-01-08T01:55:57;3.97;;;2.13;;
67528;SDS011;54366;51.980;5.856;2023-01-08T01:58:25;3.78;;;2.20;;
67528;SDS011;54366;51.980;5.856;2023-01-08T02:00:53;2.72;;;2.15;;
67528;SDS011;54366;51.980;5.856;2023-01-08T02:03:23;3.20;;;2.05;;
67528;SDS011;54366;51.980;5.856;2023-01-08T02:05:59;4.65;;;2.13;;
67528;SDS011;54366;51.980;5.856;2023-01-08T02:08:51;4.20;;;2.25;;
67528;SDS011;54366;51.980;5.856;2023-01-08T02:16:15;2.78;;;1.77;;
67528;SDS011;54366;51.980;5.856;2023-01-08T02:17:52;2.70;;;2.13;;
67528;SDS011;54366;51.980;5.856;2023-01-08T02:20:41;3.47;;;2.30;;
67528;SDS011;54366;51.980;5.856;2023-01-08T02:23:34;3.50;;;2.08;;
67528;SDS011;54366;51.980;5.856;2023-01-08T02:26:23;3.47;;;2.10;;
67528;SDS011;54366;51.980;5.856;2023-01-08T02:29:05;4.30;;;2.10;;
67528;SDS011;54366;51.980;5.856;2023-01-08T02:31:38;4.75;;;2.35;;
67528;SDS011;54366;51.980;5.856;2023-01-08T02:34:06;4.18;;;2.10;;
67528;SDS011;54366;51.980;5.856;2023-01-08T02:36:35;3.20;;;2.10;;
67528;SDS011;54366;51.980;5.856;2023-01-08T02:42:23;4.53;;;2.03;;
67528;SDS011;54366;51.980;5.856;2023-01-08T02:45:28;3.30;;;2.20;;
67528;SDS011;54366;51.980;5.856;2023-01-08T02:51:36;4.80;;;2.38;;
67528;SDS011;54366;51.980;5.856;2023-01-08T02:54:07;3.92;;;1.88;;
67528;SDS011;54366;51.980;5.856;2023-01-08T02:56:40;2.95;;;2.13;;
67528;SDS011;54366;51.980;5.856;2023-01-08T02:59:10;3.10;;;2.03;;
67528;SDS011;54366;51.980;5.856;2023-01-08T03:01:39;4.28;;;2.20;;
67528;SDS011;54366;51.980;5.856;2023-01-08T03:04:08;4.22;;;2.10;;
67528;SDS011;54366;51.980;5.856;2023-01-08T03:06:40;3.07;;;1.43;;
67528;SDS011;54366;51.980;5.856;2023-01-08T03:09:08;3.35;;;1.48;;
67528;SDS011;54366;51.980;5.856;2023-01-08T03:11:36;3.78;;;1.42;;
67528;SDS011;54366;51.980;5.856;2023-01-08T03:14:29;5.10;;;1.30;;
67528;SDS011;54366;51.980;5.856;2023-01-08T03:17:05;2.67;;;1.00;;
67528;SDS011;54366;51.980;5.856;2023-01-08T03:19:56;2.72;;;0.98;;
67528;SDS011;54366;51.980;5.856;2023-01-08T03:22:26;2.47;;;0.90;;
67528;SDS011;54366;51.980;5.856;2023-01-08T03:24:55;2.97;;;0.93;;
67528;SDS011;54366;51.980;5.856;2023-01-08T03:27:25;1.58;;;0.73;;
67528;SDS011;54366;51.980;5.856;2023-01-08T03:29:54;2.35;;;0.90;;
67528;SDS011;54366;51.980;5.856;2023-01-08T03:32:24;2.63;;;0.70;;
67528;SDS011;54366;51.980;5.856;2023-01-08T03:34:52;2.20;;;0.57;;
67528;SDS011;54366;51.980;5.856;2023-01-08T03:37:22;2.83;;;0.70;;
67528;SDS011;54366;51.980;5.856;2023-01-08T03:40:04;4.28;;;0.70;;
67528;SDS011;54366;51.980;5.856;2023-01-08T03:42:50;1.95;;;0.55;;
67528;SDS011;54366;51.980;5.856;2023-01-08T03:45:16;1.30;;;0.45;;
67528;SDS011;54366;51.980;5.856;2023-01-08T03:47:43;1.42;;;0.57;;
67528;SDS011;54366;51.980;5.856;2023-01-08T03:50:13;2.20;;;0.57;;
67528;SDS011;54366;51.980;5.856;2023-01-08T03:52:44;1.95;;;0.40;;
67528;SDS011;54366;51.980;5.856;2023-01-08T03:55:10;1.73;;;0.45;;
67528;SDS011;54366;51.980;5.856;2023-01-08T03:57:37;1.73;;;0.50;;
67528;SDS011;54366;51.980;5.856;2023-01-08T04:00:03;1.77;;;0.50;;
67528;SDS011;54366;51.980;5.856;2023-01-08T04:02:30;3.05;;;0.65;;
67528;SDS011;54366;51.980;5.856;2023-01-08T04:04:57;1.48;;;0.45;;
67528;SDS011;54366;51.980;5.856;2023-01-08T04:07:23;2.03;;;0.30;;
67528;SDS011;54366;51.980;5.856;2023-01-08T04:09:49;1.92;;;0.30;;
67528;SDS011;54366;51.980;5.856;2023-01-08T04:12:16;2.28;;;0.55;;
67528;SDS011;54366;51.980;5.856;2023-01-08T04:14:42;1.75;;;0.40;;
67528;SDS011;54366;51.980;5.856;2023-01-08T04:17:12;1.33;;;0.40;;
67528;SDS011;54366;51.980;5.856;2023-01-08T04:19:38;1.83;;;0.40;;
67528;SDS011;54366;51.980;5.856;2023-01-08T04:22:05;1.42;;;0.30;;
67528;SDS011;54366;51.980;5.856;2023-01-08T04:24:33;1.67;;;0.50;;
67528;SDS011;54366;51.980;5.856;2023-01-08T04:27:00;1.92;;;0.30;;
67528;SDS011;54366;51.980;5.856;2023-01-08T04:29:26;1.98;;;0.50;;
67528;SDS011;54366;51.980;5.856;2023-01-08T04:31:52;2.83;;;0.43;;
67528;SDS011;54366;51.980;5.856;2023-01-08T04:34:19;2.08;;;0.55;;
67528;SDS011;54366;51.980;5.856;2023-01-08T04:36:45;2.50;;;0.40;;
67528;SDS011;54366;51.980;5.856;2023-01-08T04:39:12;3.30;;;0.60;;
67528;SDS011;54366;51.980;5.856;2023-01-08T04:41:38;1.70;;;0.47;;
67528;SDS011;54366;51.980;5.856;2023-01-08T04:44:04;1.95;;;0.40;;
67528;SDS011;54366;51.980;5.856;2023-01-08T04:46:31;3.25;;;0.55;;
67528;SDS011;54366;51.980;5.856;2023-01-08T04:48:57;2.08;;;0.50;;
67528;SDS011;54366;51.980;5.856;2023-01-08T04:51:23;1.20;;;0.43;;
67528;SDS011;54366;51.980;5.856;2023-01-08T04:53:51;2.15;;;0.40;;
67528;SDS011;54366;51.980;5.856;2023-01-08T04:56:17;1.70;;;0.32;;
67528;SDS011;54366;51.980;5.856;2023-01-08T04:58:43;2.85;;;0.50;;
67528;SDS011;54366;51.980;5.856;2023-01-08T05:01:17;2.05;;;0.50;;
67528;SDS011;54366;51.980;5.856;2023-01-08T05:03:46;4.32;;;0.77;;
67528;SDS011;54366;51.980;5.856;2023-01-08T05:06:12;2.28;;;0.45;;
67528;SDS011;54366;51.980;5.856;2023-01-08T05:08:39;2.10;;;0.60;;
67528;SDS011;54366;51.980;5.856;2023-01-08T05:11:05;2.88;;;0.70;;
67528;SDS011;54366;51.980;5.856;2023-01-08T05:13:31;1.73;;;0.35;;
67528;SDS011;54366;51.980;5.856;2023-01-08T05:15:58;3.65;;;0.50;;
67528;SDS011;54366;51.980;5.856;2023-01-08T05:18:26;3.63;;;0.77;;
67528;SDS011;54366;51.980;5.856;2023-01-08T05:20:52;2.63;;;0.55;;
67528;SDS011;54366;51.980;5.856;2023-01-08T05:23:19;2.90;;;0.50;;
67528;SDS011;54366;51.980;5.856;2023-01-08T05:25:45;3.13;;;0.50;;
67528;SDS011;54366;51.980;5.856;2023-01-08T05:28:12;2.47;;;0.50;;
67528;SDS011;54366;51.980;5.856;2023-01-08T05:30:38;2.20;;;0.50;;
67528;SDS011;54366;51.980;5.856;2023-01-08T05:33:04;1.88;;;0.50;;
67528;SDS011;54366;51.980;5.856;2023-01-08T05:35:30;1.67;;;0.55;;
67528;SDS011;54366;51.980;5.856;2023-01-08T05:37:58;1.48;;;0.60;;
67528;SDS011;54366;51.980;5.856;2023-01-08T05:40:24;2.72;;;0.63;;
67528;SDS011;54366;51.980;5.856;2023-01-08T05:42:51;1.75;;;0.45;;
67528;SDS011;54366;51.980;5.856;2023-01-08T05:45:17;1.88;;;0.50;;
67528;SDS011;54366;51.980;5.856;2023-01-08T05:47:43;2.92;;;0.60;;
67528;SDS011;54366;51.980;5.856;2023-01-08T05:50:10;3.25;;;0.63;;
67528;SDS011;54366;51.980;5.856;2023-01-08T05:52:36;1.75;;;0.52;;
67528;SDS011;54366;51.980;5.856;2023-01-08T05:55:02;2.75;;;0.70;;
67528;SDS011;54366;51.980;5.856;2023-01-08T05:57:29;1.42;;;0.60;;
67528;SDS011;54366;51.980;5.856;2023-01-08T05:59:55;3.83;;;0.82;;
67528;SDS011;54366;51.980;5.856;2023-01-08T06:02:21;3.45;;;0.80;;
67528;SDS011;54366;51.980;5.856;2023-01-08T06:04:48;1.45;;;0.70;;
67528;SDS011;54366;51.980;5.856;2023-01-08T06:07:14;2.25;;;0.60;;
67528;SDS011;54366;51.980;5.856;2023-01-08T06:09:40;1.05;;;0.40;;
67528;SDS011;54366;51.980;5.856;2023-01-08T06:12:06;1.40;;;0.50;;
67528;SDS011;54366;51.980;5.856;2023-01-08T06:14:33;1.90;;;0.60;;
67528;SDS011;54366;51.980;5.856;2023-01-08T06:16:59;2.67;;;0.60;;
67528;SDS011;54366;51.980;5.856;2023-01-08T06:19:25;2.30;;;0.50;;
67528;SDS011;54366;51.980;5.856;2023-01-08T06:21:51;2.47;;;0.50;;
67528;SDS011;54366;51.980;5.856;2023-01-08T06:24:18;1.40;;;0.50;;
67528;SDS011;54366;51.980;5.856;2023-01-08T06:26:44;2.50;;;0.60;;
67528;SDS011;54366;51.980;5.856;2023-01-08T06:29:10;2.45;;;0.57;;
67528;SDS011;54366;51.980;5.856;2023-01-08T06:31:37;2.28;;;0.50;;
67528;SDS011;54366;51.980;5.856;2023-01-08T06:34:03;2.15;;;0.60;;
67528;SDS011;54366;51.980;5.856;2023-01-08T06:36:29;1.45;;;0.40;;
67528;SDS011;54366;51.980;5.856;2023-01-08T06:38:56;1.15;;;0.50;;
67528;SDS011;54366;51.980;5.856;2023-01-08T06:41:22;1.52;;;0.60;;
67528;SDS011;54366;51.980;5.856;2023-01-08T06:43:48;2.55;;;0.50;;
67528;SDS011;54366;51.980;5.856;2023-01-08T06:46:15;2.22;;;0.60;;
67528;SDS011;54366;51.980;5.856;2023-01-08T06:48:41;1.35;;;0.40;;
67528;SDS011;54366;51.980;5.856;2023-01-08T06:51:07;1.70;;;0.50;;
67528;SDS011;54366;51.980;5.856;2023-01-08T06:53:34;1.38;;;0.40;;
67528;SDS011;54366;51.980;5.856;2023-01-08T06:56:01;2.25;;;0.50;;
67528;SDS011;54366;51.980;5.856;2023-01-08T06:58:28;1.48;;;0.45;;
67528;SDS011;54366;51.980;5.856;2023-01-08T07:00:55;1.45;;;0.57;;
67528;SDS011;54366;51.980;5.856;2023-01-08T07:03:23;0.77;;;0.40;;
67528;SDS011;54366;51.980;5.856;2023-01-08T07:05:49;1.73;;;0.70;;
67528;SDS011;54366;51.980;5.856;2023-01-08T07:08:16;1.83;;;0.50;;
67528;SDS011;54366;51.980;5.856;2023-01-08T07:10:43;2.05;;;0.70;;
67528;SDS011;54366;51.980;5.856;2023-01-08T07:13:09;1.50;;;0.50;;
67528;SDS011;54366;51.980;5.856;2023-01-08T07:15:37;2.47;;;0.57;;
67528;SDS011;54366;51.980;5.856;2023-01-08T07:18:08;4.15;;;0.80;;
67528;SDS011;54366;51.980;5.856;2023-01-08T07:20:35;1.80;;;0.70;;
67528;SDS011;54366;51.980;5.856;2023-01-08T07:23:03;2.45;;;0.68;;
67528;SDS011;54366;51.980;5.856;2023-01-08T07:25:30;3.55;;;0.60;;
67528;SDS011;54366;51.980;5.856;2023-01-08T07:27:56;3.45;;;0.60;;
67528;SDS011;54366;51.980;5.856;2023-01-08T07:30:23;4.72;;;0.55;;
67528;SDS011;54366;51.980;5.856;2023-01-08T07:32:49;1.67;;;0.45;;
67528;SDS011;54366;51.980;5.856;2023-01-08T07:35:16;3.25;;;0.90;;
67528;SDS011;54366;51.980;5.856;2023-01-08T07:37:42;3.03;;;0.60;;
67528;SDS011;54366;51.980;5.856;2023-01-08T07:40:09;2.30;;;0.70;;
67528;SDS011;54366;51.980;5.856;2023-01-08T07:42:36;2.00;;;0.70;;
67528;SDS011;54366;51.980;5.856;2023-01-08T07:45:03;2.88;;;0.65;;
67528;SDS011;54366;51.980;5.856;2023-01-08T07:47:30;4.43;;;0.90;;
67528;SDS011;54366;51.980;5.856;2023-01-08T07:49:56;2.30;;;0.50;;
67528;SDS011;54366;51.980;5.856;2023-01-08T07:52:23;3.15;;;0.80;;
67528;SDS011;54366;51.980;5.856;2023-01-08T07:54:49;2.67;;;0.55;;
67528;SDS011;54366;51.980;5.856;2023-01-08T07:57:15;2.80;;;0.80;;
67528;SDS011;54366;51.980;5.856;2023-01-08T07:59:42;3.22;;;0.65;;
67528;SDS011;54366;51.980;5.856;2023-01-08T08:02:09;4.30;;;0.90;;
67528;SDS011;54366;51.980;5.856;2023-01-08T08:04:36;4.85;;;0.88;;
67528;SDS011;54366;51.980;5.856;2023-01-08T08:07:02;3.60;;;0.65;;
67528;SDS011;54366;51.980;5.856;2023-01-08T08:09:28;3.13;;;0.82;;
67528;SDS011;54366;51.980;5.856;2023-01-08T08:11:55;3.80;;;0.80;;
67528;SDS011;54366;51.980;5.856;2023-01-08T08:14:21;4.30;;;0.90;;
67528;SDS011;54366;51.980;5.856;2023-01-08T08:16:47;2.95;;;0.80;;
67528;SDS011;54366;51.980;5.856;2023-01-08T08:19:14;4.35;;;0.80;;
67528;SDS011;54366;51.980;5.856;2023-01-08T08:21:40;4.72;;;1.10;;
67528;SDS011;54366;51.980;5.856;2023-01-08T08:24:06;3.55;;;0.90;;
67528;SDS011;54366;51.980;5.856;2023-01-08T08:26:33;4.80;;;1.10;;
67528;SDS011;54366;51.980;5.856;2023-01-08T08:28:59;3.45;;;1.08;;
67528;SDS011;54366;51.980;5.856;2023-01-08T08:31:25;6.40;;;1.45;;
67528;SDS011;54366;51.980;5.856;2023-01-08T08:33:52;5.68;;;1.25;;
67528;SDS011;54366;51.980;5.856;2023-01-08T08:36:18;4.10;;;1.13;;
67528;SDS011;54366;51.980;5.856;2023-01-08T08:38:44;6.38;;;1.15;;
67528;SDS011;54366;51.980;5.856;2023-01-08T08:41:11;3.42;;;0.95;;
67528;SDS011;54366;51.980;5.856;2023-01-08T08:43:37;7.78;;;1.52;;
67528;SDS011;54366;51.980;5.856;2023-01-08T08:46:03;5.07;;;1.13;;
67528;SDS011;54366;51.980;5.856;2023-01-08T08:48:30;4.13;;;1.00;;
67528;SDS011;54366;51.980;5.856;2023-01-08T08:50:56;5.25;;;1.02;;
67528;SDS011;54366;51.980;5.856;2023-01-08T08:53:22;5.82;;;1.08;;
67528;SDS011;54366;51.980;5.856;2023-01-08T08:55:48;4.68;;;0.93;;
67528;SDS011;54366;51.980;5.856;2023-01-08T08:58:15;4.68;;;1.02;;
67528;SDS011;54366;51.980;5.856;2023-01-08T09:00:41;3.50;;;0.65;;
67528;SDS011;54366;51.980;5.856;2023-01-08T09:03:10;4.75;;;0.98;;
67528;SDS011;54366;51.980;5.856;2023-01-08T09:05:39;4.53;;;0.63;;
67528;SDS011;54366;51.980;5.856;2023-01-08T09:08:06;4.70;;;0.98;;
67528;SDS011;54366;51.980;5.856;2023-01-08T09:10:32;4.40;;;1.00;;
67528;SDS011;54366;51.980;5.856;2023-01-08T09:12:58;4.07;;;0.93;;
67528;SDS011;54366;51.980;5.856;2023-01-08T09:15:25;4.60;;;1.05;;
67528;SDS011;54366;51.980;5.856;2023-01-08T09:17:52;8.63;;;1.27;;
67528;SDS011;54366;51.980;5.856;2023-01-08T09:20:23;4.45;;;1.02;;
67528;SDS011;54366;51.980;5.856;2023-01-08T09:22:50;4.72;;;0.88;;
67528;SDS011;54366;51.980;5.856;2023-01-08T09:25:17;5.07;;;1.00;;
67528;SDS011;54366;51.980;5.856;2023-01-08T09:27:43;5.95;;;1.50;;
67528;SDS011;54366;51.980;5.856;2023-01-08T09:30:10;3.45;;;1.00;;
67528;SDS011;54366;51.980;5.856;2023-01-08T09:32:37;7.53;;;1.00;;
67528;SDS011;54366;51.980;5.856;2023-01-08T09:35:03;4.07;;;0.77;;
67528;SDS011;54366;51.980;5.856;2023-01-08T09:37:30;4.15;;;1.13;;
67528;SDS011;54366;51.980;5.856;2023-01-08T09:39:56;5.32;;;1.05;;
67528;SDS011;54366;51.980;5.856;2023-01-08T09:42:24;7.53;;;1.20;;
67528;SDS011;54366;51.980;5.856;2023-01-08T09:44:52;6.45;;;1.02;;
67528;SDS011;54366;51.980;5.856;2023-01-08T09:47:29;5.78;;;1.15;;
67528;SDS011;54366;51.980;5.856;2023-01-08T09:49:59;4.47;;;1.08;;
67528;SDS011;54366;51.980;5.856;2023-01-08T09:52:28;7.70;;;1.02;;
67528;SDS011;54366;51.980;5.856;2023-01-08T09:54:55;3.28;;;1.10;;
67528;SDS011;54366;51.980;5.856;2023-01-08T09:57:22;5.20;;;1.05;;
67528;SDS011;54366;51.980;5.856;2023-01-08T09:59:49;4.95;;;1.20;;
67528;SDS011;54366;51.980;5.856;2023-01-08T10:02:19;6.80;;;1.20;;
67528;SDS011;54366;51.980;5.856;2023-01-08T10:04:50;7.53;;;1.48;;
67528;SDS011;54366;51.980;5.856;2023-01-08T10:09:50;4.40;;;1.05;;
67528;SDS011;54366;51.980;5.856;2023-01-08T10:12:21;4.80;;;1.27;;
67528;SDS011;54366;51.980;5.856;2023-01-08T10:14:57;4.55;;;1.00;;
67528;SDS011;54366;51.980;5.856;2023-01-08T10:17:38;5.15;;;1.00;;
67528;SDS011;54366;51.980;5.856;2023-01-08T10:20:28;5.90;;;1.20;;
67528;SDS011;54366;51.980;5.856;2023-01-08T10:22:56;5.28;;;1.15;;
67528;SDS011;54366;51.980;5.856;2023-01-08T10:25:50;5.43;;;1.20;;
67528;SDS011;54366;51.980;5.856;2023-01-08T10:28:25;5.10;;;1.23;;
67528;SDS011;54366;51.980;5.856;2023-01-08T10:31:14;5.50;;;1.55;;
67528;SDS011;54366;51.980;5.856;2023-01-08T10:33:45;6.60;;;1.42;;
67528;SDS011;54366;51.980;5.856;2023-01-08T10:36:14;5.35;;;1.23;;
67528;SDS011;54366;51.980;5.856;2023-01-08T10:38:51;5.60;;;1.38;;
67528;SDS011;54366;51.980;5.856;2023-01-08T10:41:25;7.05;;;1.40;;
67528;SDS011;54366;51.980;5.856;2023-01-08T10:44:02;4.07;;;1.20;;
67528;SDS011;54366;51.980;5.856;2023-01-08T10:49:26;4.53;;;1.23;;
67528;SDS011;54366;51.980;5.856;2023-01-08T10:51:57;6.32;;;1.48;;
67528;SDS011;54366;51.980;5.856;2023-01-08T10:54:35;4.60;;;1.55;;
67528;SDS011;54366;51.980;5.856;2023-01-08T10:57:23;4.82;;;1.30;;
67528;SDS011;54366;51.980;5.856;2023-01-08T10:59:51;6.07;;;1.38;;
67528;SDS011;54366;51.980;5.856;2023-01-08T11:02:34;4.97;;;1.33;;
67528;SDS011;54366;51.980;5.856;2023-01-08T11:05:02;4.13;;;1.13;;
67528;SDS011;54366;51.980;5.856;2023-01-08T11:07:32;3.80;;;1.33;;
67528;SDS011;54366;51.980;5.856;2023-01-08T11:10:02;5.70;;;1.13;;
67528;SDS011;54366;51.980;5.856;2023-01-08T11:12:31;6.28;;;1.48;;
67528;SDS011;54366;51.980;5.856;2023-01-08T11:15:00;3.47;;;1.10;;
67528;SDS011;54366;51.980;5.856;2023-01-08T11:17:50;3.85;;;1.35;;
67528;SDS011;54366;51.980;5.856;2023-01-08T11:20:21;4.88;;;1.17;;
67528;SDS011;54366;51.980;5.856;2023-01-08T11:26:09;5.05;;;1.30;;
67528;SDS011;54366;51.980;5.856;2023-01-08T11:28:48;3.78;;;1.10;;
67528;SDS011;54366;51.980;5.856;2023-01-08T11:31:38;5.53;;;1.30;;
67528;SDS011;54366;51.980;5.856;2023-01-08T11:37:34;5.18;;;1.60;;
67528;SDS011;54366;51.980;5.856;2023-01-08T11:40:11;5.25;;;1.30;;
67528;SDS011;54366;51.980;5.856;2023-01-08T11:43:16;4.63;;;1.10;;
67528;SDS011;54366;51.980;5.856;2023-01-08T11:55:36;3.35;;;1.02;;
67528;SDS011;54366;51.980;5.856;2023-01-08T12:01:32;3.65;;;0.75;;
67528;SDS011;54366;51.980;5.856;2023-01-08T12:07:36;3.13;;;0.70;;
67528;SDS011;54366;51.980;5.856;2023-01-08T12:10:47;2.40;;;0.82;;
67528;SDS011;54366;51.980;5.856;2023-01-08T12:20:20;1.50;;;0.50;;
67528;SDS011;54366;51.980;5.856;2023-01-08T12:23:37;1.80;;;0.40;;
67528;SDS011;54366;51.980;5.856;2023-01-08T12:26:29;1.92;;;0.60;;
67528;SDS011;54366;51.980;5.856;2023-01-08T12:32:23;1.88;;;0.30;;
67528;SDS011;54366;51.980;5.856;2023-01-08T12:35:25;0.77;;;0.20;;
67528;SDS011;54366;51.980;5.856;2023-01-08T12:38:12;1.33;;;0.38;;
67528;SDS011;54366;51.980;5.856;2023-01-08T12:40:51;1.75;;;0.40;;
67528;SDS011;54366;51.980;5.856;2023-01-08T12:43:38;1.08;;;0.30;;
67528;SDS011;54366;51.980;5.856;2023-01-08T12:46:20;1.67;;;0.40;;
67528;SDS011;54366;51.980;5.856;2023-01-08T12:48:48;0.93;;;0.25;;
67528;SDS011;54366;51.980;5.856;2023-01-08T12:51:37;0.95;;;0.20;;
67528;SDS011;54366;51.980;5.856;2023-01-08T12:54:30;1.38;;;0.20;;
67528;SDS011;54366;51.980;5.856;2023-01-08T12:57:30;0.95;;;0.20;;
67528;SDS011;54366;51.980;5.856;2023-01-08T13:00:08;1.38;;;0.20;;
67528;SDS011;54366;51.980;5.856;2023-01-08T13:02:57;0.88;;;0.30;;
67528;SDS011;54366;51.980;5.856;2023-01-08T13:08:03;2.30;;;0.30;;
67528;SDS011;54366;51.980;5.856;2023-01-08T13:10:38;1.00;;;0.30;;
67528;SDS011;54366;51.980;5.856;2023-01-08T13:13:07;1.33;;;0.25;;
67528;SDS011;54366;51.980;5.856;2023-01-08T13:15:49;0.67;;;0.47;;
67528;SDS011;54366;51.980;5.856;2023-01-08T13:18:19;1.80;;;0.30;;
67528;SDS011;54366;51.980;5.856;2023-01-08T13:20:55;1.50;;;0.43;;
67528;SDS011;54366;51.980;5.856;2023-01-08T13:23:24;2.03;;;0.63;;
67528;SDS011;54366;51.980;5.856;2023-01-08T13:25:54;1.63;;;0.40;;
67528;SDS011;54366;51.980;5.856;2023-01-08T13:28:24;2.45;;;0.43;;
67528;SDS011;54366;51.980;5.856;2023-01-08T13:34:03;1.02;;;0.40;;
67528;SDS011;54366;51.980;5.856;2023-01-08T13:36:55;1.45;;;0.40;;
67528;SDS011;54366;51.980;5.856;2023-01-08T13:45:00;1.48;;;0.38;;
67528;SDS011;54366;51.980;5.856;2023-01-08T13:50:15;3.08;;;0.43;;
67528;SDS011;54366;51.980;5.856;2023-01-08T13:52:49;3.47;;;0.60;;
67528;SDS011;54366;51.980;5.856;2023-01-08T13:55:26;1.95;;;0.50;;
67528;SDS011;54366;51.980;5.856;2023-01-08T13:58:04;2.58;;;0.50;;
67528;SDS011;54366;51.980;5.856;2023-01-08T14:03:22;1.80;;;0.65;;
67528;SDS011;54366;51.980;5.856;2023-01-08T14:06:10;2.92;;;0.60;;
67528;SDS011;54366;51.980;5.856;2023-01-08T14:08:57;2.80;;;0.55;;
67528;SDS011;54366;51.980;5.856;2023-01-08T14:11:31;1.98;;;0.77;;
67528;SDS011;54366;51.980;5.856;2023-01-08T14:14:14;3.95;;;0.60;;
67528;SDS011;54366;51.980;5.856;2023-01-08T14:16:42;2.78;;;0.60;;
67528;SDS011;54366;51.980;5.856;2023-01-08T14:19:10;3.17;;;0.50;;
67528;SDS011;54366;51.980;5.856;2023-01-08T14:21:49;3.17;;;0.70;;
67528;SDS011;54366;51.980;5.856;2023-01-08T14:24:21;2.28;;;0.60;;
67528;SDS011;54366;51.980;5.856;2023-01-08T14:26:50;2.58;;;0.57;;
67528;SDS011;54366;51.980;5.856;2023-01-08T14:29:22;3.08;;;0.50;;
67528;SDS011;54366;51.980;5.856;2023-01-08T14:31:51;2.78;;;0.60;;
67528;SDS011;54366;51.980;5.856;2023-01-08T14:34:19;3.63;;;0.70;;
67528;SDS011;54366;51.980;5.856;2023-01-08T14:36:50;2.20;;;0.70;;
67528;SDS011;54366;51.980;5.856;2023-01-08T14:48:28;2.45;;;0.85;;
67528;SDS011;54366;51.980;5.856;2023-01-08T14:51:06;3.20;;;0.60;;
67528;SDS011;54366;51.980;5.856;2023-01-08T14:53:36;3.15;;;0.50;;
67528;SDS011;54366;51.980;5.856;2023-01-08T14:56:12;3.25;;;0.57;;
67528;SDS011;54366;51.980;5.856;2023-01-08T14:58:41;2.40;;;0.60;;
67528;SDS011;54366;51.980;5.856;2023-01-08T15:01:27;1.90;;;0.70;;
67528;SDS011;54366;51.980;5.856;2023-01-08T15:04:05;2.17;;;0.60;;
67528;SDS011;54366;51.980;5.856;2023-01-08T15:06:42;2.65;;;0.40;;
67528;SDS011;54366;51.980;5.856;2023-01-08T15:09:21;2.17;;;0.55;;
67528;SDS011;54366;51.980;5.856;2023-01-08T15:12:01;2.40;;;0.60;;
67528;SDS011;54366;51.980;5.856;2023-01-08T15:14:29;2.88;;;0.80;;
67528;SDS011;54366;51.980;5.856;2023-01-08T15:16:59;4.10;;;0.77;;
67528;SDS011;54366;51.980;5.856;2023-01-08T15:19:38;4.78;;;0.70;;
67528;SDS011;54366;51.980;5.856;2023-01-08T15:22:15;2.22;;;0.60;;
67528;SDS011;54366;51.980;5.856;2023-01-08T15:27:22;2.85;;;0.60;;
67528;SDS011;54366;51.980;5.856;2023-01-08T15:29:50;2.58;;;0.80;;
67528;SDS011;54366;51.980;5.856;2023-01-08T15:32:30;2.50;;;0.52;;
67528;SDS011;54366;51.980;5.856;2023-01-08T15:34:59;4.38;;;0.63;;
67528;SDS011;54366;51.980;5.856;2023-01-08T15:37:26;1.88;;;0.57;;
67528;SDS011;54366;51.980;5.856;2023-01-08T15:39:52;3.08;;;0.70;;
67528;SDS011;54366;51.980;5.856;2023-01-08T15:42:20;2.50;;;0.80;;
67528;SDS011;54366;51.980;5.856;2023-01-08T15:45:16;1.88;;;0.43;;
67528;SDS011;54366;51.980;5.856;2023-01-08T15:47:46;3.90;;;0.50;;
67528;SDS011;54366;51.980;5.856;2023-01-08T15:50:13;2.42;;;0.55;;
67528;SDS011;54366;51.980;5.856;2023-01-08T15:52:40;1.90;;;0.70;;
67528;SDS011;54366;51.980;5.856;2023-01-08T15:55:18;2.03;;;0.43;;
67528;SDS011;54366;51.980;5.856;2023-01-08T15:57:46;1.90;;;0.52;;
67528;SDS011;54366;51.980;5.856;2023-01-08T16:00:12;3.42;;;0.75;;
67528;SDS011;54366;51.980;5.856;2023-01-08T16:02:41;2.33;;;0.80;;
67528;SDS011;54366;51.980;5.856;2023-01-08T16:05:08;4.78;;;1.08;;
67528;SDS011;54366;51.980;5.856;2023-01-08T16:07:35;2.20;;;0.70;;
67528;SDS011;54366;51.980;5.856;2023-01-08T16:10:01;2.05;;;0.68;;
67528;SDS011;54366;51.980;5.856;2023-01-08T16:12:28;4.10;;;0.90;;
67528;SDS011;54366;51.980;5.856;2023-01-08T16:14:54;3.42;;;0.82;;
67528;SDS011;54366;51.980;5.856;2023-01-08T16:17:21;2.45;;;0.60;;
67528;SDS011;54366;51.980;5.856;2023-01-08T16:19:47;2.47;;;0.75;;
67528;SDS011;54366;51.980;5.856;2023-01-08T16:22:13;2.78;;;1.05;;
67528;SDS011;54366;51.980;5.856;2023-01-08T16:24:40;3.50;;;0.98;;
67528;SDS011;54366;51.980;5.856;2023-01-08T16:27:06;3.05;;;0.98;;
67528;SDS011;54366;51.980;5.856;2023-01-08T16:29:34;3.67;;;0.77;;